createdAt,value
2023-01-21T00:00:43.101Z,16.35
2023-01-21T00:03:12.950Z,15.15
2023-01-21T00:05:39.727Z,15.45
2023-01-21T00:08:06.227Z,15.23
2023-01-21T00:10:32.729Z,15.93
2023-01-21T00:12:59.275Z,16.10
2023-01-21T00:15:25.931Z,14.57
2023-01-21T00:17:53.568Z,14.27
2023-01-21T00:20:20.165Z,13.85
2023-01-21T00:22:46.647Z,14.85
2023-01-21T00:25:13.164Z,13.57
2023-01-21T00:27:39.883Z,13.13
2023-01-21T00:30:06.895Z,13.85
2023-01-21T00:32:33.413Z,12.85
2023-01-21T00:34:59.902Z,14.00
2023-01-21T00:37:26.513Z,13.48
2023-01-21T00:39:53.022Z,14.40
2023-01-21T00:42:19.554Z,14.38
2023-01-21T00:44:46.066Z,15.77
2023-01-21T00:47:12.557Z,13.55
2023-01-21T00:49:39.144Z,14.05
2023-01-21T00:52:05.750Z,12.93
2023-01-21T00:54:32.432Z,12.45
2023-01-21T00:56:59.256Z,12.20
2023-01-21T00:59:28.116Z,12.32
2023-01-21T01:01:55.087Z,12.45
2023-01-21T01:04:22.968Z,12.43
2023-01-21T01:06:49.487Z,13.13
2023-01-21T01:09:15.998Z,12.98
2023-01-21T01:11:42.508Z,12.55
2023-01-21T01:14:09.175Z,12.65
2023-01-21T01:16:35.717Z,11.20
2023-01-21T01:19:02.197Z,12.20
2023-01-21T01:21:28.777Z,10.65
2023-01-21T01:23:55.731Z,11.63
2023-01-21T01:26:22.674Z,10.85
2023-01-21T01:28:49.299Z,12.45
2023-01-21T01:31:17.777Z,10.15
2023-01-21T01:33:44.368Z,11.18
2023-01-21T01:36:14.923Z,11.23
2023-01-21T01:38:41.645Z,11.52
2023-01-21T01:41:08.952Z,12.18
2023-01-21T01:44:05.755Z,12.93
2023-01-21T01:46:34.842Z,12.15
2023-01-21T01:49:05.936Z,11.15
2023-01-21T01:52:03.577Z,11.85
2023-01-21T01:54:36.403Z,11.77
2023-01-21T01:57:05.809Z,12.10
2023-01-21T01:59:33.114Z,10.32
2023-01-21T02:02:23.088Z,11.75
2023-01-21T02:04:58.916Z,11.65
2023-01-21T02:07:26.907Z,11.48
2023-01-21T02:09:53.863Z,11.23
2023-01-21T02:12:20.618Z,11.68
2023-01-21T02:14:47.444Z,12.52
2023-01-21T02:17:26.681Z,12.80
2023-01-21T02:20:18.744Z,13.05
2023-01-21T02:22:59.373Z,12.88
2023-01-21T02:25:47.697Z,11.43
2023-01-21T02:28:47.902Z,12.23
2023-01-21T02:31:55.218Z,12.40
2023-01-21T02:34:31.505Z,13.10
2023-01-21T02:37:07.221Z,14.27
2023-01-21T02:39:56.718Z,15.07
2023-01-21T02:42:35.496Z,14.40
2023-01-21T02:45:24.929Z,16.33
2023-01-21T02:48:08.531Z,16.38
2023-01-21T02:50:48.056Z,16.38
2023-01-21T02:53:27.348Z,16.13
2023-01-21T02:55:54.475Z,15.45
2023-01-21T02:58:32.056Z,16.73
2023-01-21T03:01:43.260Z,16.40
2023-01-21T03:04:37.490Z,16.23
2023-01-21T03:07:27.379Z,16.13
2023-01-21T03:09:58.291Z,16.05
2023-01-21T03:15:45.594Z,14.27
2023-01-21T03:18:17.707Z,14.55
2023-01-21T03:20:47.774Z,13.80
2023-01-21T03:23:24.315Z,14.83
2023-01-21T03:25:51.007Z,14.77
2023-01-21T03:28:21.910Z,14.05
2023-01-21T03:30:55.408Z,16.38
2023-01-21T03:33:22.919Z,15.63
2023-01-21T03:35:52.123Z,15.13
2023-01-21T03:38:25.089Z,14.18
2023-01-21T03:40:56.617Z,13.63
2023-01-21T03:43:23.136Z,14.05
2023-01-21T03:45:55.557Z,13.93
2023-01-21T03:48:28.670Z,14.07
2023-01-21T03:51:05.425Z,13.45
2023-01-21T03:53:31.960Z,13.55
2023-01-21T03:55:59.966Z,12.90
2023-01-21T03:58:27.555Z,12.50
2023-01-21T04:00:54.211Z,12.98
2023-01-21T04:03:20.807Z,12.68
2023-01-21T04:05:47.355Z,12.82
2023-01-21T04:08:13.886Z,11.52
2023-01-21T04:10:40.418Z,11.68
2023-01-21T04:13:07.048Z,11.65
2023-01-21T04:15:33.579Z,11.68
2023-01-21T04:18:00.189Z,11.40
2023-01-21T04:20:26.668Z,9.90
2023-01-21T04:22:53.359Z,9.05
2023-01-21T04:25:20.104Z,9.52
2023-01-21T04:27:46.620Z,9.25
2023-01-21T04:30:13.360Z,9.32
2023-01-21T04:32:40.097Z,9.52
2023-01-21T04:35:07.104Z,9.60
2023-01-21T04:37:33.866Z,9.23
2023-01-21T04:40:00.381Z,10.20
2023-01-21T04:42:26.909Z,9.35
2023-01-21T04:44:53.450Z,9.30
2023-01-21T04:47:19.949Z,8.40
2023-01-21T04:49:48.741Z,9.60
2023-01-21T04:52:15.307Z,8.57
2023-01-21T04:54:41.872Z,8.63
2023-01-21T04:57:08.404Z,8.80
2023-01-21T04:59:35.066Z,8.65
2023-01-21T05:02:01.611Z,9.45
2023-01-21T05:04:28.242Z,8.63
2023-01-21T05:06:55.748Z,8.82
2023-01-21T05:09:22.314Z,9.20
2023-01-21T05:11:48.977Z,9.02
2023-01-21T05:14:15.498Z,9.15
2023-01-21T05:16:42.062Z,8.63
2023-01-21T05:19:08.624Z,9.85
2023-01-21T05:21:35.155Z,8.77
2023-01-21T05:24:02.155Z,8.75
2023-01-21T05:26:28.747Z,9.48
2023-01-21T05:28:55.249Z,9.32
2023-01-21T05:31:21.813Z,9.82
2023-01-21T05:33:48.669Z,8.45
2023-01-21T05:36:15.164Z,10.27
2023-01-21T05:38:41.691Z,9.20
2023-01-21T05:41:08.361Z,8.63
2023-01-21T05:43:34.923Z,9.30
2023-01-21T05:46:01.709Z,9.88
2023-01-21T05:48:29.551Z,9.80
2023-01-21T05:50:58.283Z,10.30
2023-01-21T05:53:25.368Z,9.52
2023-01-21T05:55:53.694Z,9.20
2023-01-21T05:58:20.842Z,9.20
2023-01-21T06:00:48.528Z,8.80
2023-01-21T06:03:16.064Z,9.27
2023-01-21T06:05:43.092Z,9.30
2023-01-21T06:08:10.721Z,9.30
2023-01-21T06:10:37.667Z,9.43
2023-01-21T06:13:04.252Z,8.80
2023-01-21T06:15:33.574Z,8.68
2023-01-21T06:18:01.320Z,9.20
2023-01-21T06:20:30.526Z,9.38
2023-01-21T06:22:58.124Z,10.07
2023-01-21T06:25:25.631Z,9.52
2023-01-21T06:27:55.505Z,11.13
2023-01-21T06:30:22.999Z,10.30
2023-01-21T06:32:49.497Z,9.90
2023-01-21T06:35:16.153Z,11.43
2023-01-21T06:37:42.756Z,11.55
2023-01-21T06:40:10.358Z,12.32
2023-01-21T06:42:36.871Z,12.23
2023-01-21T06:45:03.987Z,11.93
2023-01-21T06:47:30.962Z,13.75
2023-01-21T06:49:57.954Z,14.70
2023-01-21T06:52:24.434Z,15.18
2023-01-21T06:54:50.965Z,13.75
2023-01-21T06:57:17.461Z,14.32
2023-01-21T06:59:44.010Z,14.48
2023-01-21T07:02:12.800Z,14.25
2023-01-21T07:04:39.504Z,16.48
2023-01-21T07:07:06.066Z,16.15
2023-01-21T07:09:32.591Z,16.55
2023-01-21T07:11:59.089Z,16.65
2023-01-21T07:14:25.626Z,15.48
2023-01-21T07:16:52.123Z,16.70
2023-01-21T07:19:21.398Z,16.73
2023-01-21T07:21:47.843Z,15.85
2023-01-21T07:24:14.346Z,16.98
2023-01-21T07:26:41.956Z,16.98
2023-01-21T07:29:09.153Z,17.50
2023-01-21T07:31:35.939Z,15.95
2023-01-21T07:34:03.044Z,18.52
2023-01-21T07:36:29.644Z,16.90
2023-01-21T07:38:56.207Z,16.77
2023-01-21T07:41:22.960Z,18.10
2023-01-21T07:43:50.486Z,17.73
2023-01-21T07:46:18.175Z,17.95
2023-01-21T07:48:44.682Z,17.08
2023-01-21T07:51:11.256Z,17.70
2023-01-21T07:53:37.763Z,17.73
2023-01-21T07:56:07.881Z,18.02
2023-01-21T07:58:34.440Z,16.53
2023-01-21T08:01:03.895Z,17.58
2023-01-21T08:03:30.370Z,17.92
2023-01-21T08:05:56.867Z,17.98
2023-01-21T08:08:23.351Z,18.63
2023-01-21T08:10:56.353Z,18.08
2023-01-21T08:13:23.327Z,16.40
2023-01-21T08:15:51.286Z,17.33
2023-01-21T08:18:18.215Z,16.63
2023-01-21T08:20:44.980Z,17.50
2023-01-21T08:23:11.627Z,15.90
2023-01-21T08:25:38.574Z,16.38
2023-01-21T08:28:05.310Z,17.20
2023-01-21T08:30:32.001Z,15.90
2023-01-21T08:32:58.619Z,16.95
2023-01-21T08:35:25.284Z,17.25
2023-01-21T08:37:54.576Z,16.77
2023-01-21T08:40:21.069Z,18.00
2023-01-21T08:42:47.564Z,15.38
2023-01-21T08:45:15.456Z,15.85
2023-01-21T08:47:42.065Z,15.75
2023-01-21T08:50:09.827Z,15.48
2023-01-21T08:52:36.371Z,17.70
2023-01-21T08:55:02.891Z,15.73
2023-01-21T08:57:29.945Z,16.08
2023-01-21T08:59:56.748Z,17.67
2023-01-21T09:02:23.683Z,18.02
2023-01-21T09:04:50.690Z,15.75
2023-01-21T09:07:17.331Z,17.02
2023-01-21T09:09:44.059Z,16.35
2023-01-21T09:12:10.626Z,16.50
2023-01-21T09:14:37.493Z,16.95
2023-01-21T09:17:04.152Z,16.45
2023-01-21T09:19:31.078Z,16.00
2023-01-21T09:21:57.818Z,17.13
2023-01-21T09:24:25.215Z,15.90
2023-01-21T09:26:52.458Z,16.95
2023-01-21T09:29:19.272Z,15.38
2023-01-21T09:31:46.149Z,15.30
2023-01-21T09:34:13.018Z,15.27
2023-01-21T09:36:39.667Z,15.75
2023-01-21T09:39:07.919Z,14.10
2023-01-21T09:41:45.641Z,13.80
2023-01-21T09:44:21.135Z,14.57
2023-01-21T09:47:11.284Z,14.30
2023-01-21T09:49:41.655Z,14.43
2023-01-21T09:52:27.196Z,13.77
2023-01-21T09:54:55.187Z,14.13
2023-01-21T09:57:39.470Z,16.25
2023-01-21T10:00:15.670Z,14.98
2023-01-21T10:03:04.711Z,14.55
2023-01-21T10:05:50.338Z,16.15
2023-01-21T10:08:29.336Z,14.80
2023-01-21T10:11:34.108Z,15.48
2023-01-21T10:14:07.089Z,15.80
2023-01-21T10:16:55.834Z,14.20
2023-01-21T10:19:39.803Z,14.15
2023-01-21T10:22:13.059Z,14.23
2023-01-21T10:24:46.212Z,13.65
2023-01-21T10:27:16.902Z,15.63
2023-01-21T10:29:43.648Z,13.52
2023-01-21T10:32:15.172Z,13.23
2023-01-21T10:34:50.213Z,13.38
2023-01-21T10:37:29.460Z,13.30
2023-01-21T10:40:02.168Z,13.30
2023-01-21T10:42:51.234Z,12.35
2023-01-21T10:45:28.258Z,12.73
2023-01-21T10:48:15.943Z,13.15
2023-01-21T10:51:06.328Z,12.10
2023-01-21T10:53:44.505Z,11.93
2023-01-21T10:56:29.194Z,14.20
2023-01-21T10:59:05.877Z,12.48
2023-01-21T11:01:36.356Z,13.35
2023-01-21T11:04:14.578Z,12.98
2023-01-21T11:06:41.287Z,13.20
2023-01-21T11:09:11.471Z,12.80
2023-01-21T11:11:40.721Z,12.30
2023-01-21T11:14:08.068Z,12.68
2023-01-21T11:16:49.661Z,12.50
2023-01-21T11:19:30.492Z,12.23
2023-01-21T11:22:09.180Z,11.35
2023-01-21T11:24:47.114Z,12.20
2023-01-21T11:27:21.473Z,12.55
2023-01-21T11:29:49.508Z,11.85
2023-01-21T11:32:24.313Z,11.95
2023-01-21T11:35:00.973Z,12.20
2023-01-21T11:37:29.283Z,12.30
2023-01-21T11:39:58.703Z,10.95
2023-01-21T11:42:25.331Z,11.93
2023-01-21T11:44:54.739Z,10.88
2023-01-21T11:47:51.295Z,11.77
2023-01-21T11:50:35.354Z,10.63
2023-01-21T11:55:47.428Z,10.70
2023-01-21T11:58:30.445Z,11.43
2023-01-21T12:01:06.833Z,11.45
2023-01-21T12:03:37.710Z,11.00
2023-01-21T12:06:06.918Z,11.95
2023-01-21T12:08:35.890Z,11.07
2023-01-21T12:11:03.732Z,12.02
2023-01-21T12:14:05.687Z,11.10
2023-01-21T12:16:37.571Z,12.68
2023-01-21T12:19:26.607Z,10.18
2023-01-21T12:22:01.759Z,10.98
2023-01-21T12:24:49.947Z,11.32
2023-01-21T12:27:19.392Z,11.32
2023-01-21T12:29:56.374Z,10.90
2023-01-21T12:32:40.921Z,11.35
2023-01-21T12:35:12.923Z,11.30
2023-01-21T12:37:54.164Z,10.88
2023-01-21T12:40:46.100Z,10.45
2023-01-21T12:43:20.055Z,10.40
2023-01-21T12:45:51.557Z,10.45
2023-01-21T12:48:24.287Z,10.77
2023-01-21T12:50:59.370Z,8.98
2023-01-21T12:53:49.426Z,9.10
2023-01-21T12:56:44.778Z,9.05
2023-01-21T12:59:19.717Z,8.88
2023-01-21T13:01:52.343Z,8.25
2023-01-21T13:04:45.835Z,8.18
2023-01-21T13:07:26.878Z,8.07
2023-01-21T13:10:03.423Z,8.18
2023-01-21T13:12:31.518Z,8.20
2023-01-21T13:15:16.962Z,7.55
2023-01-21T13:17:49.533Z,7.05
2023-01-21T13:20:21.120Z,7.97
2023-01-21T13:22:57.231Z,7.78
2023-01-21T13:25:44.839Z,6.88
2023-01-21T13:28:38.519Z,6.85
2023-01-21T13:31:15.286Z,6.60
2023-01-21T13:33:55.107Z,6.57
2023-01-21T13:36:59.170Z,6.78
2023-01-21T13:39:28.703Z,6.50
2023-01-21T13:42:32.574Z,5.85
2023-01-21T13:45:22.283Z,6.38
2023-01-21T13:48:10.574Z,6.60
2023-01-21T13:51:00.031Z,5.43
2023-01-21T13:53:44.340Z,5.97
2023-01-21T13:56:45.334Z,5.07
2023-01-21T13:59:21.066Z,5.70
2023-01-21T14:01:49.757Z,5.35
2023-01-21T14:04:43.174Z,5.25
2023-01-21T14:07:19.091Z,5.50
2023-01-21T14:10:02.401Z,5.70
2023-01-21T14:12:52.586Z,4.10
2023-01-21T14:15:26.660Z,5.25
2023-01-21T14:18:19.791Z,5.03
2023-01-21T14:21:08.224Z,5.10
2023-01-21T14:23:44.184Z,4.30
2023-01-21T14:26:29.435Z,4.22
2023-01-21T14:29:06.705Z,4.05
2023-01-21T14:31:37.454Z,4.10
2023-01-21T14:34:10.265Z,3.50
2023-01-21T14:36:41.768Z,3.80
2023-01-21T14:39:29.204Z,3.55
2023-01-21T14:42:04.769Z,3.63
2023-01-21T14:44:45.635Z,3.85
2023-01-21T14:47:28.749Z,3.45
2023-01-21T14:49:57.210Z,3.80
2023-01-21T14:52:43.254Z,3.83
2023-01-21T14:55:30.046Z,3.80
2023-01-21T14:57:57.476Z,3.38
2023-01-21T15:00:29.243Z,3.53
2023-01-21T15:03:13.475Z,3.30
2023-01-21T15:05:41.166Z,3.60
2023-01-21T15:08:24.140Z,3.40
2023-01-21T15:10:53.891Z,2.80
2023-01-21T15:13:47.364Z,2.80
2023-01-21T15:16:34.187Z,10.00
2023-01-21T15:19:09.940Z,2.70
2023-01-21T15:21:36.411Z,2.75
2023-01-21T15:24:18.982Z,2.95
2023-01-21T15:27:13.399Z,3.15
2023-01-21T15:29:55.275Z,2.55
2023-01-21T15:32:31.350Z,2.80
2023-01-21T15:35:19.911Z,2.72
2023-01-21T15:37:49.331Z,5.13
2023-01-21T15:40:18.575Z,2.65
2023-01-21T15:42:53.376Z,2.33
2023-01-21T15:45:47.696Z,2.83
2023-01-21T15:48:18.226Z,3.17
2023-01-21T15:50:55.206Z,2.88
2023-01-21T15:53:29.446Z,2.40
2023-01-21T15:56:24.349Z,13.05
2023-01-21T15:59:16.507Z,4.32
2023-01-21T16:01:43.232Z,4.07
2023-01-21T16:04:27.590Z,2.92
2023-01-21T16:07:15.689Z,3.72
2023-01-21T16:10:08.901Z,3.38
2023-01-21T16:13:05.266Z,3.65
2023-01-21T16:15:54.121Z,3.58
2023-01-21T16:18:38.010Z,3.13
2023-01-21T16:21:04.705Z,3.22
2023-01-21T16:23:36.536Z,4.00
2023-01-21T16:26:03.699Z,3.45
2023-01-21T16:28:49.873Z,3.53
2023-01-21T16:31:16.747Z,3.80
2023-01-21T16:33:43.513Z,3.45
2023-01-21T16:36:14.077Z,4.03
2023-01-21T16:38:42.276Z,3.47
2023-01-21T16:41:08.796Z,4.15
2023-01-21T16:43:38.723Z,4.95
2023-01-21T16:46:11.965Z,4.18
2023-01-21T16:48:38.665Z,4.90
2023-01-21T16:51:05.502Z,4.07
2023-01-21T16:53:32.416Z,4.88
2023-01-21T16:55:59.575Z,5.05
2023-01-21T16:58:29.614Z,4.82
2023-01-21T17:01:10.505Z,4.93
2023-01-21T17:03:37.845Z,6.00
2023-01-21T17:06:09.004Z,4.97
2023-01-21T17:08:36.459Z,5.78
2023-01-21T17:11:08.106Z,5.28
2023-01-21T17:13:41.558Z,4.47
2023-01-21T17:16:30.540Z,4.72
2023-01-21T17:19:00.128Z,3.78
2023-01-21T17:21:34.355Z,4.22
2023-01-21T17:24:04.663Z,4.63
2023-01-21T17:26:34.821Z,5.35
2023-01-21T17:29:18.637Z,5.33
2023-01-21T17:31:46.266Z,5.45
2023-01-21T17:34:15.657Z,5.28
2023-01-21T17:36:44.521Z,4.80
2023-01-21T17:39:11.549Z,4.85
2023-01-21T17:41:41.062Z,4.93
2023-01-21T17:44:24.483Z,5.90
2023-01-21T17:46:54.717Z,4.80
2023-01-21T17:49:23.403Z,4.90
2023-01-21T17:51:52.684Z,4.50
2023-01-21T17:54:26.367Z,7.20
2023-01-21T17:56:55.074Z,5.03
2023-01-21T17:59:31.341Z,5.10
2023-01-21T18:01:58.049Z,5.35
2023-01-21T18:04:24.765Z,4.18
2023-01-21T18:06:52.807Z,5.25
2023-01-21T18:09:20.758Z,5.90
2023-01-21T18:11:48.470Z,5.70
2023-01-21T18:14:20.599Z,5.50
2023-01-21T18:16:47.664Z,4.45
2023-01-21T18:19:31.436Z,6.18
2023-01-21T18:21:58.782Z,5.20
2023-01-21T18:24:25.798Z,5.47
2023-01-21T18:26:52.704Z,5.38
2023-01-21T18:29:21.780Z,6.35
2023-01-21T18:31:50.723Z,5.30
2023-01-21T18:34:18.105Z,6.47
2023-01-21T18:36:44.791Z,5.47
2023-01-21T18:39:21.389Z,5.88
2023-01-21T18:41:48.011Z,6.40
2023-01-21T18:44:14.928Z,6.72
2023-01-21T18:46:43.221Z,6.25
2023-01-21T18:49:19.354Z,6.38
2023-01-21T18:51:46.502Z,7.28
2023-01-21T18:54:14.247Z,8.15
2023-01-21T18:56:42.439Z,6.03
2023-01-21T18:59:12.499Z,6.65
2023-01-21T19:01:39.269Z,6.07
2023-01-21T19:04:09.551Z,5.75
2023-01-21T19:06:36.560Z,5.88
2023-01-21T19:09:03.638Z,7.05
2023-01-21T19:11:30.240Z,6.50
2023-01-21T19:13:56.815Z,5.95
2023-01-21T19:16:23.453Z,5.80
2023-01-21T19:18:50.310Z,6.05
2023-01-21T19:21:16.940Z,6.22
2023-01-21T19:23:43.599Z,6.13
2023-01-21T19:26:13.067Z,6.47
2023-01-21T19:28:39.632Z,6.20
2023-01-21T19:31:06.369Z,6.03
2023-01-21T19:33:32.985Z,5.85
2023-01-21T19:36:03.270Z,5.28
2023-01-21T19:38:30.176Z,5.53
2023-01-21T19:40:56.841Z,5.28
2023-01-21T19:43:23.521Z,5.78
2023-01-21T19:45:51.533Z,5.95
2023-01-21T19:48:19.559Z,5.53
2023-01-21T19:50:46.400Z,6.68
2023-01-21T19:53:15.254Z,6.65
2023-01-21T19:55:42.475Z,5.82
2023-01-21T19:58:29.242Z,5.50
2023-01-21T20:00:56.130Z,5.25
2023-01-21T20:03:24.610Z,5.63
2023-01-21T20:05:58.517Z,5.97
2023-01-21T20:08:27.660Z,6.18
2023-01-21T20:10:54.231Z,5.90
2023-01-21T20:13:20.937Z,5.15
2023-01-21T20:15:48.726Z,5.95
2023-01-21T20:18:33.624Z,6.30
2023-01-21T20:21:00.155Z,5.22
2023-01-21T20:23:26.890Z,5.97
2023-01-21T20:25:55.502Z,5.22
2023-01-21T20:28:24.932Z,5.32
2023-01-21T20:30:52.682Z,5.95
2023-01-21T20:33:21.402Z,6.40
2023-01-21T20:35:49.875Z,6.15
2023-01-21T20:38:21.769Z,6.38
2023-01-21T20:40:48.321Z,6.93
2023-01-21T20:43:16.073Z,7.03
2023-01-21T20:45:46.670Z,6.97
2023-01-21T20:48:22.966Z,6.30
2023-01-21T20:50:51.156Z,6.88
2023-01-21T20:53:17.753Z,6.70
2023-01-21T20:55:46.560Z,6.68
2023-01-21T20:58:14.357Z,7.15
2023-01-21T21:00:41.363Z,6.40
2023-01-21T21:03:07.940Z,6.35
2023-01-21T21:05:34.518Z,6.97
2023-01-21T21:08:01.053Z,6.38
2023-01-21T21:10:36.255Z,6.13
2023-01-21T21:13:03.874Z,6.57
2023-01-21T21:15:31.902Z,5.93
2023-01-21T21:17:59.316Z,6.28
2023-01-21T21:20:28.323Z,8.10
2023-01-21T21:22:54.942Z,6.90
2023-01-21T21:25:23.578Z,6.25
2023-01-21T21:27:50.195Z,5.88
2023-01-21T21:30:37.017Z,5.80
2023-01-21T21:33:03.798Z,5.70
2023-01-21T21:35:35.828Z,5.72
2023-01-21T21:38:08.092Z,6.53
2023-01-21T21:40:37.507Z,6.07
2023-01-21T21:43:22.647Z,5.60
2023-01-21T21:46:08.093Z,5.90
2023-01-21T21:48:46.086Z,6.18
2023-01-21T21:51:14.673Z,5.57
2023-01-21T21:53:41.717Z,5.38
2023-01-21T21:56:10.952Z,5.55
2023-01-21T21:58:37.637Z,5.30
2023-01-21T22:01:15.588Z,7.55
2023-01-21T22:03:42.281Z,5.55
2023-01-21T22:06:09.629Z,5.30
2023-01-21T22:08:38.020Z,6.43
2023-01-21T22:11:06.381Z,5.85
2023-01-21T22:13:38.019Z,5.47
2023-01-21T22:16:04.964Z,5.18
2023-01-21T22:18:33.032Z,4.90
2023-01-21T22:21:04.970Z,4.80
2023-01-21T22:23:32.756Z,4.90
2023-01-21T22:26:01.984Z,4.63
2023-01-21T22:28:28.659Z,4.90
2023-01-21T22:30:55.632Z,4.63
2023-01-21T22:33:22.385Z,4.63
2023-01-21T22:35:48.979Z,5.45
2023-01-21T22:38:15.552Z,4.90
2023-01-21T22:40:42.100Z,5.05
2023-01-21T22:43:09.269Z,5.95
2023-01-21T22:45:35.888Z,4.60
2023-01-21T22:48:02.429Z,4.32
2023-01-21T22:50:29.115Z,4.78
2023-01-21T22:52:56.576Z,4.82
2023-01-21T22:55:23.236Z,4.43
2023-01-21T22:57:49.823Z,4.97
2023-01-21T23:00:33.818Z,4.55
2023-01-21T23:03:00.459Z,4.60
2023-01-21T23:05:28.496Z,4.68
2023-01-21T23:07:55.455Z,4.93
2023-01-21T23:10:22.035Z,4.68
2023-01-21T23:12:48.555Z,5.10
2023-01-21T23:15:15.149Z,6.60
2023-01-21T23:17:41.691Z,5.60
2023-01-21T23:20:09.283Z,4.70
2023-01-21T23:22:35.881Z,5.20
2023-01-21T23:25:02.444Z,5.03
2023-01-21T23:27:28.991Z,5.13
2023-01-21T23:29:55.542Z,5.82
2023-01-21T23:32:22.148Z,5.05
2023-01-21T23:34:48.687Z,5.07
2023-01-21T23:37:15.218Z,5.45
2023-01-21T23:39:42.260Z,5.10
2023-01-21T23:42:08.944Z,4.95
2023-01-21T23:44:35.491Z,4.78
2023-01-21T23:47:02.176Z,4.63
2023-01-21T23:49:29.006Z,4.90
2023-01-21T23:51:55.721Z,5.05
2023-01-21T23:54:22.264Z,5.20
2023-01-21T23:56:48.770Z,5.72
2023-01-21T23:59:15.469Z,5.45
